Sacramento, California
Traffic Map
Current Weather Conditions
Sacramento, California
Clear
Clear
37°
Feels Like: 37°
Wind Chill: 37° Ceiling: Unl
Heat Index: 37° Visibility: 10mi
Dew Point: 27° Wind: 0mph
Humidity: 67% Direction: ° ()
Pressure: 29.93in Gusts: 0mph
Raw Report DataKSAC 190853Z AUTO 00000KT 10SM CLR 03/M03 A2993 RMK AO2 SLP133 T00281028 50005 $
Traffic Incident Summary
Active as of:
Severity:
Category:
InformationThere was an issue retrieving the traffic information for this location. Please try a different location or try again shortly.
Advertisements